createdAt,value
2017-08-18T00:00:10.552Z,0
2017-08-18T00:00:36.710Z,0
2017-08-18T00:01:02.888Z,0
2017-08-18T00:01:29.083Z,0
2017-08-18T00:01:55.285Z,0
2017-08-18T00:02:21.404Z,0
2017-08-18T00:02:47.611Z,0
2017-08-18T00:03:13.751Z,0
2017-08-18T00:03:39.903Z,0
2017-08-18T00:04:06.088Z,0
2017-08-18T00:04:32.270Z,0
2017-08-18T00:04:58.450Z,0
2017-08-18T00:05:24.680Z,0
2017-08-18T00:05:50.864Z,0
2017-08-18T00:06:17.100Z,0
2017-08-18T00:06:43.321Z,0
2017-08-18T00:07:09.476Z,0
2017-08-18T00:07:35.707Z,0
2017-08-18T00:08:01.918Z,0
2017-08-18T00:08:28.126Z,0
2017-08-18T00:08:54.284Z,0
2017-08-18T00:09:20.493Z,0
2017-08-18T00:09:46.642Z,0
2017-08-18T00:10:12.805Z,0
2017-08-18T00:10:39.059Z,0
2017-08-18T00:11:05.256Z,0
2017-08-18T00:11:31.458Z,0
2017-08-18T00:11:57.712Z,0
2017-08-18T00:12:23.923Z,0
2017-08-18T00:12:50.102Z,0
2017-08-18T00:13:16.250Z,0
2017-08-18T00:13:42.447Z,0
2017-08-18T00:14:08.639Z,0
2017-08-18T00:14:34.784Z,0
2017-08-18T00:15:00.946Z,0
2017-08-18T00:15:27.198Z,0
2017-08-18T00:15:53.320Z,0
2017-08-18T00:16:19.510Z,0
2017-08-18T00:16:45.735Z,0
2017-08-18T00:17:11.909Z,0
2017-08-18T00:17:38.031Z,0
2017-08-18T00:18:04.216Z,0
2017-08-18T00:18:30.404Z,0
2017-08-18T00:18:56.597Z,0
2017-08-18T00:19:22.741Z,0
2017-08-18T00:19:48.966Z,0
2017-08-18T00:20:15.162Z,0
2017-08-18T00:20:41.337Z,0
2017-08-18T00:21:07.518Z,0
2017-08-18T00:21:33.721Z,0
2017-08-18T00:21:59.899Z,0
2017-08-18T00:22:26.076Z,0
2017-08-18T00:22:52.237Z,0
2017-08-18T00:23:18.475Z,0
2017-08-18T00:23:44.700Z,0
2017-08-18T00:24:10.839Z,0
2017-08-18T00:24:37.033Z,0
2017-08-18T00:25:03.220Z,0
2017-08-18T00:25:29.430Z,0
2017-08-18T00:25:55.581Z,0
2017-08-18T00:26:21.714Z,0
2017-08-18T00:26:47.892Z,0
2017-08-18T00:27:14.065Z,0
2017-08-18T00:27:40.264Z,0
2017-08-18T00:28:06.421Z,0
2017-08-18T00:28:32.539Z,0
2017-08-18T00:28:58.727Z,0
2017-08-18T00:29:24.887Z,0
2017-08-18T00:29:51.061Z,0
2017-08-18T00:30:17.217Z,0
2017-08-18T00:30:43.351Z,0
2017-08-18T00:31:09.496Z,0
2017-08-18T00:31:35.703Z,0
2017-08-18T00:32:01.861Z,0
2017-08-18T00:32:27.980Z,0
2017-08-18T00:32:54.154Z,0
2017-08-18T00:33:20.417Z,0
2017-08-18T00:33:46.624Z,0
2017-08-18T00:34:12.801Z,0
2017-08-18T00:34:38.989Z,0
2017-08-18T00:35:05.150Z,0
2017-08-18T00:35:31.346Z,0
2017-08-18T00:35:57.523Z,0
2017-08-18T00:36:23.673Z,0
2017-08-18T00:36:49.839Z,0
2017-08-18T00:37:16.087Z,0
2017-08-18T00:37:42.200Z,0
2017-08-18T00:38:08.405Z,0
2017-08-18T00:38:34.590Z,0
2017-08-18T00:39:00.828Z,0
2017-08-18T00:39:27.020Z,0
2017-08-18T00:39:53.245Z,0
2017-08-18T00:40:19.402Z,0
2017-08-18T00:40:45.623Z,0
2017-08-18T00:41:11.795Z,0
2017-08-18T00:41:37.988Z,0
2017-08-18T00:42:04.202Z,0
2017-08-18T00:42:30.375Z,0
2017-08-18T00:42:56.569Z,0
2017-08-18T00:43:22.822Z,0
2017-08-18T00:43:49.026Z,0
2017-08-18T00:44:15.209Z,0
2017-08-18T00:44:41.379Z,0
2017-08-18T00:45:07.549Z,0
2017-08-18T00:45:33.765Z,0
2017-08-18T00:45:59.942Z,0
2017-08-18T00:46:26.075Z,0
2017-08-18T00:46:52.261Z,0
2017-08-18T00:47:18.436Z,0
2017-08-18T00:47:44.623Z,0
2017-08-18T00:48:10.783Z,0
2017-08-18T00:48:36.896Z,0
2017-08-18T00:49:03.083Z,0
2017-08-18T00:49:29.249Z,0
2017-08-18T00:49:55.394Z,0
2017-08-18T00:50:21.632Z,0
2017-08-18T00:50:47.793Z,0
2017-08-18T00:51:13.947Z,0
2017-08-18T00:51:40.136Z,0
2017-08-18T00:52:06.280Z,0
2017-08-18T00:52:32.464Z,0
2017-08-18T00:52:58.687Z,0
2017-08-18T00:53:24.833Z,0
2017-08-18T00:53:51.066Z,0
2017-08-18T00:54:17.201Z,0
2017-08-18T00:54:43.375Z,0
2017-08-18T00:55:09.518Z,0
2017-08-18T00:55:35.712Z,0
2017-08-18T00:56:01.871Z,0
2017-08-18T00:56:28.015Z,0
2017-08-18T00:56:54.268Z,0
2017-08-18T00:57:20.416Z,0
2017-08-18T00:57:46.619Z,0
2017-08-18T00:58:12.797Z,0
2017-08-18T00:58:38.994Z,0
2017-08-18T00:59:05.192Z,0
2017-08-18T00:59:31.401Z,0
2017-08-18T00:59:57.548Z,0
2017-08-18T01:00:23.739Z,0
2017-08-18T01:00:49.929Z,0
2017-08-18T01:01:16.069Z,0
2017-08-18T01:01:42.229Z,0
2017-08-18T01:02:08.392Z,0
2017-08-18T01:02:34.602Z,0
2017-08-18T01:03:00.782Z,0
2017-08-18T01:03:26.982Z,0
2017-08-18T01:03:53.173Z,0
2017-08-18T01:04:19.329Z,0
2017-08-18T01:04:45.470Z,0
2017-08-18T01:05:11.649Z,0
2017-08-18T01:05:37.813Z,0
2017-08-18T01:06:04.010Z,0
2017-08-18T01:06:30.195Z,0
2017-08-18T01:06:56.385Z,0
2017-08-18T01:07:22.563Z,0
2017-08-18T01:07:48.717Z,0
2017-08-18T01:08:14.933Z,0
2017-08-18T01:08:41.184Z,0
2017-08-18T01:09:07.343Z,0
2017-08-18T01:09:33.542Z,0
2017-08-18T01:09:59.666Z,0
2017-08-18T01:10:25.830Z,0
2017-08-18T01:10:52.012Z,0
2017-08-18T01:11:18.221Z,0
2017-08-18T01:11:44.450Z,0
2017-08-18T01:12:10.634Z,0
2017-08-18T01:12:36.780Z,0
2017-08-18T01:13:03.046Z,0
2017-08-18T01:13:29.265Z,0
2017-08-18T01:13:55.408Z,0
2017-08-18T01:14:21.636Z,0
2017-08-18T01:14:47.824Z,0
2017-08-18T01:15:14.001Z,0
2017-08-18T01:15:40.158Z,0
2017-08-18T01:16:06.321Z,0
2017-08-18T01:16:32.491Z,0
2017-08-18T01:16:58.677Z,0
2017-08-18T01:17:24.908Z,0
2017-08-18T01:17:51.049Z,0
2017-08-18T01:18:17.257Z,0
2017-08-18T01:18:43.390Z,0
2017-08-18T01:19:09.513Z,0
2017-08-18T01:19:35.703Z,0
2017-08-18T01:20:01.847Z,0
2017-08-18T01:20:28.053Z,0
2017-08-18T01:20:54.223Z,0
2017-08-18T01:21:20.398Z,0
2017-08-18T01:21:46.582Z,0
2017-08-18T01:22:12.809Z,0
2017-08-18T01:22:38.990Z,0
2017-08-18T01:23:05.164Z,0
2017-08-18T01:23:31.393Z,0
2017-08-18T01:23:57.546Z,0
2017-08-18T01:24:23.688Z,0
2017-08-18T01:24:49.908Z,0
2017-08-18T01:25:16.078Z,0
2017-08-18T01:25:42.303Z,0
2017-08-18T01:26:08.481Z,0
2017-08-18T01:26:34.656Z,0
2017-08-18T01:27:00.821Z,0
2017-08-18T01:27:27.007Z,0
2017-08-18T01:27:53.179Z,0
2017-08-18T01:28:19.405Z,0
2017-08-18T01:28:45.594Z,0
2017-08-18T01:29:11.769Z,0
2017-08-18T01:29:37.925Z,0
2017-08-18T01:30:04.125Z,0
2017-08-18T01:30:30.300Z,0
2017-08-18T01:30:56.490Z,0
2017-08-18T01:31:22.694Z,0
2017-08-18T01:31:48.919Z,0
2017-08-18T01:32:15.140Z,0
2017-08-18T01:32:41.287Z,0
2017-08-18T01:33:07.442Z,0
2017-08-18T01:33:33.592Z,0
2017-08-18T01:33:59.811Z,0
2017-08-18T01:34:25.959Z,0
2017-08-18T01:34:52.158Z,0
2017-08-18T01:35:18.363Z,0
2017-08-18T01:35:44.548Z,0
2017-08-18T01:36:10.798Z,0
2017-08-18T01:36:37.045Z,0
2017-08-18T01:37:03.276Z,0
2017-08-18T01:37:29.447Z,0
2017-08-18T01:37:55.664Z,0
2017-08-18T01:38:21.858Z,0
2017-08-18T01:38:47.999Z,0
2017-08-18T01:39:14.151Z,0
2017-08-18T01:39:40.382Z,0
2017-08-18T01:40:06.534Z,0
2017-08-18T01:40:32.708Z,0
2017-08-18T01:40:58.914Z,0
2017-08-18T01:41:25.102Z,0
2017-08-18T01:41:51.357Z,0
2017-08-18T01:42:17.528Z,0
2017-08-18T01:42:43.706Z,0
2017-08-18T01:43:09.932Z,0
2017-08-18T01:43:36.115Z,0
2017-08-18T01:44:02.315Z,0
2017-08-18T01:44:28.448Z,0
2017-08-18T01:44:54.603Z,0
2017-08-18T01:45:20.807Z,0
2017-08-18T01:45:46.996Z,0
2017-08-18T01:46:13.121Z,0
2017-08-18T01:46:39.295Z,0
2017-08-18T01:47:05.485Z,0
2017-08-18T01:47:31.690Z,0
2017-08-18T01:47:57.852Z,0
2017-08-18T01:48:24.011Z,0
2017-08-18T01:48:50.248Z,0
2017-08-18T01:49:16.445Z,0
2017-08-18T01:49:42.601Z,0
2017-08-18T01:50:08.748Z,0
2017-08-18T01:50:34.932Z,0
2017-08-18T01:51:01.195Z,0
2017-08-18T01:51:27.338Z,0
2017-08-18T01:51:53.547Z,0
2017-08-18T01:52:19.776Z,0
2017-08-18T01:52:45.891Z,0
2017-08-18T01:53:12.142Z,0
2017-08-18T01:53:38.288Z,0
2017-08-18T01:54:04.455Z,0
2017-08-18T01:54:30.650Z,0
2017-08-18T01:54:56.860Z,0
2017-08-18T01:55:23.071Z,0
2017-08-18T01:55:49.271Z,0
2017-08-18T01:56:15.386Z,0
2017-08-18T01:56:41.597Z,0
2017-08-18T01:57:07.860Z,0
2017-08-18T01:57:33.979Z,0
2017-08-18T01:58:00.151Z,0
2017-08-18T01:58:26.375Z,0
2017-08-18T01:58:52.499Z,0
2017-08-18T01:59:18.669Z,0
2017-08-18T01:59:44.839Z,0
2017-08-18T02:00:11.019Z,0
2017-08-18T02:00:37.196Z,0
2017-08-18T02:01:03.452Z,0
2017-08-18T02:01:29.643Z,0
2017-08-18T02:01:55.826Z,0
2017-08-18T02:02:21.979Z,0
2017-08-18T02:02:48.178Z,0
2017-08-18T02:03:14.382Z,0
2017-08-18T02:03:40.536Z,0
2017-08-18T02:04:06.723Z,0
2017-08-18T02:04:32.913Z,0
2017-08-18T02:04:59.076Z,0
2017-08-18T02:05:25.214Z,0
2017-08-18T02:05:51.393Z,0
2017-08-18T02:06:17.553Z,0
2017-08-18T02:06:43.761Z,0
2017-08-18T02:07:09.967Z,0
2017-08-18T02:07:36.123Z,0
2017-08-18T02:08:02.303Z,0
2017-08-18T02:08:28.504Z,0
2017-08-18T02:08:54.697Z,0
2017-08-18T02:09:20.886Z,0
2017-08-18T02:09:47.039Z,0
2017-08-18T02:10:13.189Z,0
2017-08-18T02:10:39.398Z,0
2017-08-18T02:11:05.595Z,0
2017-08-18T02:11:31.778Z,0
2017-08-18T02:11:58.010Z,0
2017-08-18T02:12:24.180Z,0
2017-08-18T02:12:50.402Z,0
2017-08-18T02:13:16.547Z,0
2017-08-18T02:13:42.737Z,0
2017-08-18T02:14:08.925Z,0
2017-08-18T02:14:35.095Z,0
2017-08-18T02:15:01.282Z,0
2017-08-18T02:15:27.495Z,0
2017-08-18T02:15:53.694Z,0
2017-08-18T02:16:19.878Z,0
2017-08-18T02:16:46.027Z,0
2017-08-18T02:17:12.224Z,0
2017-08-18T02:17:38.441Z,0
2017-08-18T02:18:04.610Z,0
2017-08-18T02:18:30.853Z,0
2017-08-18T02:18:57.046Z,0
2017-08-18T02:19:23.179Z,0
2017-08-18T02:19:49.388Z,0
2017-08-18T02:20:15.579Z,0
2017-08-18T02:20:41.718Z,0
2017-08-18T02:21:07.864Z,0
2017-08-18T02:21:34.055Z,0
2017-08-18T02:22:00.294Z,0
2017-08-18T02:22:26.432Z,0
2017-08-18T02:22:52.591Z,0
2017-08-18T02:23:18.800Z,0
2017-08-18T02:23:44.974Z,0
2017-08-18T02:24:11.153Z,0
2017-08-18T02:24:37.333Z,0
2017-08-18T02:25:03.497Z,0
2017-08-18T02:25:29.616Z,0
2017-08-18T02:25:55.801Z,0
2017-08-18T02:26:21.975Z,0
2017-08-18T02:26:48.122Z,0
2017-08-18T02:27:14.287Z,0
2017-08-18T02:27:40.448Z,0
2017-08-18T02:28:06.633Z,0
2017-08-18T02:28:32.800Z,0
2017-08-18T02:28:59.009Z,0
2017-08-18T02:29:25.232Z,0
2017-08-18T02:29:51.338Z,0
2017-08-18T02:30:17.545Z,0
2017-08-18T02:30:43.701Z,0
2017-08-18T02:31:09.875Z,0
2017-08-18T02:31:36.103Z,0
2017-08-18T02:32:02.346Z,0
2017-08-18T02:32:28.553Z,0
2017-08-18T02:32:54.742Z,0
2017-08-18T02:33:20.878Z,0
2017-08-18T02:33:47.082Z,0
2017-08-18T02:34:13.269Z,0
2017-08-18T02:34:39.434Z,0
2017-08-18T02:35:05.609Z,0
2017-08-18T02:35:31.834Z,0
2017-08-18T02:35:57.974Z,0
2017-08-18T02:36:24.168Z,0
2017-08-18T02:36:50.360Z,0
2017-08-18T02:37:16.535Z,0
2017-08-18T02:37:42.694Z,0
2017-08-18T02:38:08.895Z,0
2017-08-18T02:38:35.100Z,0
2017-08-18T02:39:01.258Z,0
2017-08-18T02:39:27.403Z,0
2017-08-18T02:39:53.564Z,0
2017-08-18T02:40:19.814Z,0
2017-08-18T02:40:46.022Z,0
2017-08-18T02:41:12.217Z,0
2017-08-18T02:41:38.369Z,0
2017-08-18T02:42:04.583Z,0
2017-08-18T02:42:30.774Z,0
2017-08-18T02:42:56.987Z,0
2017-08-18T02:43:23.212Z,0
2017-08-18T02:43:49.412Z,0
2017-08-18T02:44:15.558Z,0
2017-08-18T02:44:41.785Z,0
2017-08-18T02:45:07.983Z,0
2017-08-18T02:45:34.184Z,0
2017-08-18T02:46:00.407Z,0
2017-08-18T02:46:26.587Z,0
2017-08-18T02:46:52.783Z,0
2017-08-18T02:47:18.972Z,0
2017-08-18T02:47:45.150Z,0
2017-08-18T02:48:11.373Z,0
2017-08-18T02:48:37.589Z,0
2017-08-18T02:49:03.853Z,0
2017-08-18T02:49:30.039Z,0
2017-08-18T02:49:56.209Z,0
2017-08-18T02:50:22.373Z,0
2017-08-18T02:50:48.560Z,0
2017-08-18T02:51:14.804Z,0
2017-08-18T02:51:40.970Z,0
2017-08-18T02:52:07.185Z,0
2017-08-18T02:52:33.367Z,0
2017-08-18T02:52:59.536Z,0
2017-08-18T02:53:25.714Z,0
2017-08-18T02:53:51.933Z,0
2017-08-18T02:54:18.136Z,0
2017-08-18T02:54:44.322Z,0
2017-08-18T02:55:10.520Z,0
2017-08-18T02:55:36.703Z,0
2017-08-18T02:56:02.821Z,0
2017-08-18T02:56:28.960Z,0
2017-08-18T02:56:55.175Z,0
2017-08-18T02:57:21.399Z,0
2017-08-18T02:57:47.569Z,0
2017-08-18T02:58:13.744Z,0
2017-08-18T02:58:39.904Z,0
2017-08-18T02:59:06.044Z,0
2017-08-18T02:59:32.247Z,0
2017-08-18T02:59:58.393Z,0
2017-08-18T03:00:24.543Z,0
2017-08-18T03:00:50.734Z,0
2017-08-18T03:01:16.899Z,0
2017-08-18T03:01:43.017Z,0
2017-08-18T03:02:09.236Z,0
2017-08-18T03:02:35.404Z,0
2017-08-18T03:03:01.572Z,0
2017-08-18T03:03:27.754Z,0
2017-08-18T03:03:53.958Z,0
2017-08-18T03:04:20.123Z,0
2017-08-18T03:04:46.308Z,0
2017-08-18T03:05:12.494Z,0
2017-08-18T03:05:38.646Z,0
2017-08-18T03:06:04.812Z,0
2017-08-18T03:06:31.021Z,0
2017-08-18T03:06:57.207Z,0
2017-08-18T03:07:23.386Z,0
2017-08-18T03:07:49.576Z,0
2017-08-18T03:08:15.779Z,0
2017-08-18T03:08:41.913Z,0
2017-08-18T03:09:08.076Z,0
2017-08-18T03:09:34.356Z,0
2017-08-18T03:10:00.537Z,0
2017-08-18T03:10:26.681Z,0
2017-08-18T03:10:52.881Z,0
2017-08-18T03:11:19.110Z,0
2017-08-18T03:11:45.327Z,0
2017-08-18T03:12:11.509Z,0
2017-08-18T03:12:37.733Z,0
2017-08-18T03:13:03.887Z,0
2017-08-18T03:13:30.042Z,0
2017-08-18T03:13:56.209Z,0
2017-08-18T03:14:22.388Z,0
2017-08-18T03:14:48.518Z,0
2017-08-18T03:15:14.738Z,0
2017-08-18T03:15:40.917Z,0
2017-08-18T03:16:07.074Z,0
2017-08-18T03:16:33.245Z,0
2017-08-18T03:16:59.426Z,0
2017-08-18T03:17:25.594Z,0
2017-08-18T03:17:51.805Z,0
2017-08-18T03:18:17.961Z,0
2017-08-18T03:18:44.129Z,0
2017-08-18T03:19:10.330Z,0
2017-08-18T03:19:36.520Z,0
2017-08-18T03:20:02.692Z,0
2017-08-18T03:20:28.841Z,0
2017-08-18T03:20:55.024Z,0
2017-08-18T03:21:21.206Z,0
2017-08-18T03:21:47.316Z,0
2017-08-18T03:22:13.494Z,0
2017-08-18T03:22:39.719Z,0
2017-08-18T03:23:05.907Z,0
2017-08-18T03:23:32.105Z,0
2017-08-18T03:23:58.304Z,0
2017-08-18T03:24:24.529Z,0
2017-08-18T03:24:50.724Z,0
2017-08-18T03:25:16.944Z,0
2017-08-18T03:25:43.128Z,0
2017-08-18T03:26:09.374Z,0
2017-08-18T03:26:35.483Z,0
2017-08-18T03:27:01.673Z,0
2017-08-18T03:27:27.887Z,0
2017-08-18T03:27:54.053Z,0
2017-08-18T03:28:20.237Z,0
2017-08-18T03:28:46.395Z,0
2017-08-18T03:29:12.532Z,0
2017-08-18T03:29:38.709Z,0
2017-08-18T03:30:04.863Z,0
2017-08-18T03:30:31.034Z,0
2017-08-18T03:30:57.261Z,0
2017-08-18T03:31:23.477Z,0
2017-08-18T03:31:49.649Z,0
2017-08-18T03:32:15.791Z,0
2017-08-18T03:32:41.978Z,0
2017-08-18T03:33:08.099Z,0
2017-08-18T03:33:34.280Z,0
2017-08-18T03:34:00.422Z,0
2017-08-18T03:34:26.568Z,0
2017-08-18T03:34:52.761Z,0
2017-08-18T03:35:18.870Z,0
2017-08-18T03:35:45.070Z,0
2017-08-18T03:36:11.261Z,0
2017-08-18T03:36:37.476Z,0
2017-08-18T03:37:03.645Z,0
2017-08-18T03:37:29.803Z,0
2017-08-18T03:37:55.950Z,0
2017-08-18T03:38:22.149Z,0
2017-08-18T03:38:48.333Z,0
2017-08-18T03:39:14.528Z,0
2017-08-18T03:39:40.721Z,0
2017-08-18T03:40:06.926Z,0
2017-08-18T03:40:33.070Z,0
2017-08-18T03:40:59.259Z,0
2017-08-18T03:41:25.505Z,0
2017-08-18T03:41:51.668Z,0
2017-08-18T03:42:17.853Z,0
2017-08-18T03:42:44.074Z,0
2017-08-18T03:43:10.261Z,0
2017-08-18T03:43:36.458Z,0
2017-08-18T03:44:02.582Z,0
2017-08-18T03:44:28.824Z,0
2017-08-18T03:44:54.948Z,0
2017-08-18T03:45:21.055Z,0
2017-08-18T03:45:47.233Z,4
2017-08-18T03:46:13.390Z,4
2017-08-18T03:46:39.496Z,4
2017-08-18T03:47:05.673Z,4
2017-08-18T03:47:31.886Z,4
2017-08-18T03:47:58.055Z,0
2017-08-18T03:48:24.232Z,0
2017-08-18T03:48:50.388Z,4
2017-08-18T03:49:16.565Z,4
2017-08-18T03:49:42.705Z,4
2017-08-18T03:50:08.892Z,4
2017-08-18T03:50:35.070Z,4
2017-08-18T03:51:01.198Z,8
2017-08-18T03:51:27.427Z,4
2017-08-18T03:51:53.546Z,4
2017-08-18T03:52:19.671Z,4
2017-08-18T03:52:45.812Z,8
2017-08-18T03:53:12.008Z,8
2017-08-18T03:53:38.138Z,8
2017-08-18T03:54:04.322Z,8
2017-08-18T03:54:30.487Z,8
2017-08-18T03:54:56.619Z,12
2017-08-18T03:55:22.832Z,8
2017-08-18T03:55:48.986Z,12
2017-08-18T03:56:15.190Z,16
2017-08-18T03:56:41.386Z,12
2017-08-18T03:57:07.604Z,16
2017-08-18T03:57:33.783Z,16
2017-08-18T03:57:59.926Z,16
2017-08-18T03:58:26.115Z,20
2017-08-18T03:58:52.265Z,20
2017-08-18T03:59:18.408Z,24
2017-08-18T03:59:44.589Z,24
2017-08-18T04:00:10.838Z,24
2017-08-18T04:00:37.041Z,28
2017-08-18T04:01:03.216Z,28
2017-08-18T04:01:29.427Z,28
2017-08-18T04:01:55.587Z,28
2017-08-18T04:02:21.803Z,36
2017-08-18T04:02:47.997Z,36
2017-08-18T04:03:14.149Z,36
2017-08-18T04:03:40.337Z,40
2017-08-18T04:04:06.503Z,40
2017-08-18T04:04:32.683Z,44
2017-08-18T04:04:58.837Z,44
2017-08-18T04:05:24.976Z,48
2017-08-18T04:05:51.179Z,52
2017-08-18T04:06:17.396Z,48
2017-08-18T04:06:43.534Z,48
2017-08-18T04:07:09.723Z,52
2017-08-18T04:07:35.889Z,52
2017-08-18T04:08:02.038Z,52
2017-08-18T04:08:28.230Z,56
2017-08-18T04:08:54.430Z,56
2017-08-18T04:09:20.602Z,56
2017-08-18T04:09:46.792Z,56
2017-08-18T04:10:12.988Z,60
2017-08-18T04:10:39.101Z,60
2017-08-18T04:11:05.286Z,64
2017-08-18T04:11:31.438Z,68
2017-08-18T04:11:57.634Z,68
2017-08-18T04:12:23.756Z,72
2017-08-18T04:12:49.908Z,72
2017-08-18T04:13:16.047Z,80
2017-08-18T04:13:42.223Z,80
2017-08-18T04:14:08.447Z,80
2017-08-18T04:14:34.611Z,80
2017-08-18T04:15:00.792Z,84
2017-08-18T04:15:27.037Z,84
2017-08-18T04:15:53.176Z,84
2017-08-18T04:16:19.319Z,84
2017-08-18T04:16:45.509Z,84
2017-08-18T04:17:11.686Z,92
2017-08-18T04:17:37.855Z,96
2017-08-18T04:18:04.011Z,104
2017-08-18T04:18:30.217Z,116
2017-08-18T04:18:56.449Z,128
2017-08-18T04:19:22.617Z,136
2017-08-18T04:19:48.760Z,148
2017-08-18T04:20:14.980Z,156
2017-08-18T04:20:41.190Z,164
2017-08-18T04:21:07.383Z,168
2017-08-18T04:21:33.573Z,176
2017-08-18T04:21:59.781Z,184
2017-08-18T04:22:25.951Z,192
2017-08-18T04:22:52.109Z,204
2017-08-18T04:23:18.295Z,212
2017-08-18T04:23:44.440Z,228
2017-08-18T04:24:10.649Z,236
2017-08-18T04:24:36.785Z,244
2017-08-18T04:25:02.978Z,248
2017-08-18T04:25:29.189Z,248
2017-08-18T04:25:55.332Z,252
2017-08-18T04:26:21.521Z,248
2017-08-18T04:26:47.738Z,248
2017-08-18T04:27:13.900Z,244
2017-08-18T04:27:40.081Z,244
2017-08-18T04:28:06.240Z,248
2017-08-18T04:28:32.404Z,248
2017-08-18T04:28:58.603Z,256
2017-08-18T04:29:24.742Z,264
2017-08-18T04:29:50.928Z,272
2017-08-18T04:30:17.109Z,280
2017-08-18T04:30:43.303Z,288
2017-08-18T04:31:09.512Z,296
2017-08-18T04:31:35.675Z,304
2017-08-18T04:32:01.810Z,304
2017-08-18T04:32:27.994Z,308
2017-08-18T04:32:54.117Z,308
2017-08-18T04:33:20.320Z,316
2017-08-18T04:33:46.524Z,316
2017-08-18T04:34:12.746Z,328
2017-08-18T04:34:38.929Z,340
2017-08-18T04:35:05.091Z,356
2017-08-18T04:35:31.284Z,372
2017-08-18T04:35:57.465Z,384
2017-08-18T04:36:23.651Z,396
2017-08-18T04:36:49.794Z,408
2017-08-18T04:37:15.963Z,420
2017-08-18T04:37:42.187Z,440
2017-08-18T04:38:08.366Z,460
2017-08-18T04:38:34.538Z,484
2017-08-18T04:39:00.787Z,508
2017-08-18T04:39:26.969Z,536
2017-08-18T04:39:53.137Z,564
2017-08-18T04:40:19.295Z,584
2017-08-18T04:40:45.403Z,608
2017-08-18T04:41:11.566Z,628
2017-08-18T04:41:37.808Z,644
2017-08-18T04:42:03.948Z,660
2017-08-18T04:42:30.141Z,680
2017-08-18T04:42:56.288Z,704
2017-08-18T04:43:22.458Z,728
2017-08-18T04:43:48.583Z,752
2017-08-18T04:44:14.764Z,772
2017-08-18T04:44:40.955Z,788
2017-08-18T04:45:07.137Z,812
2017-08-18T04:45:33.298Z,828
2017-08-18T04:45:59.500Z,852
2017-08-18T04:46:25.768Z,868
2017-08-18T04:46:51.907Z,888
2017-08-18T04:47:18.064Z,900
2017-08-18T04:47:44.246Z,916
2017-08-18T04:48:10.356Z,932
2017-08-18T04:48:36.505Z,944
2017-08-18T04:49:02.660Z,964
2017-08-18T04:49:28.824Z,988
2017-08-18T04:49:54.976Z,1004
2017-08-18T04:50:21.164Z,1028
2017-08-18T04:50:47.307Z,1040
2017-08-18T04:51:13.506Z,1048
2017-08-18T04:51:39.688Z,1048
2017-08-18T04:52:05.896Z,1040
2017-08-18T04:52:32.113Z,1032
2017-08-18T04:52:58.278Z,1032
2017-08-18T04:53:24.484Z,1048
2017-08-18T04:53:50.645Z,1068
2017-08-18T04:54:16.815Z,1092
2017-08-18T04:54:42.957Z,1120
2017-08-18T04:55:09.178Z,1140
2017-08-18T04:55:35.390Z,1160
2017-08-18T04:56:01.527Z,1180
2017-08-18T04:56:27.754Z,1188
2017-08-18T04:56:53.967Z,1192
2017-08-18T04:57:20.165Z,1188
2017-08-18T04:57:46.381Z,1176
2017-08-18T04:58:12.564Z,1160
2017-08-18T04:58:38.731Z,1152
2017-08-18T04:59:04.851Z,1152
2017-08-18T04:59:30.980Z,1152
2017-08-18T04:59:57.118Z,1160
2017-08-18T05:00:23.289Z,1168
2017-08-18T05:00:49.483Z,1172
2017-08-18T05:01:15.696Z,1164
2017-08-18T05:01:41.917Z,1152
2017-08-18T05:02:08.142Z,1136
2017-08-18T05:02:34.354Z,1132
2017-08-18T05:03:00.537Z,1132
2017-08-18T05:03:26.737Z,1148
2017-08-18T05:03:52.940Z,1164
2017-08-18T05:04:19.100Z,1188
2017-08-18T05:04:45.264Z,1200
2017-08-18T05:05:11.438Z,1212
2017-08-18T05:05:37.622Z,1208
2017-08-18T05:06:03.801Z,1200
2017-08-18T05:06:29.995Z,1188
2017-08-18T05:06:56.255Z,1168
2017-08-18T05:07:22.459Z,1148
2017-08-18T05:07:48.625Z,1128
2017-08-18T05:08:14.816Z,1100
2017-08-18T05:08:40.957Z,1068
2017-08-18T05:09:07.141Z,1032
2017-08-18T05:09:33.287Z,1000
2017-08-18T05:09:59.521Z,968
2017-08-18T05:10:25.730Z,932
2017-08-18T05:10:51.917Z,896
2017-08-18T05:11:18.131Z,864
2017-08-18T05:11:44.317Z,836
2017-08-18T05:12:10.561Z,812
2017-08-18T05:12:36.789Z,792
2017-08-18T05:13:03.000Z,772
2017-08-18T05:13:29.222Z,760
2017-08-18T05:13:55.333Z,752
2017-08-18T05:14:21.547Z,748
2017-08-18T05:14:47.744Z,744
2017-08-18T05:15:13.867Z,740
2017-08-18T05:15:40.150Z,740
2017-08-18T05:16:06.344Z,736
2017-08-18T05:16:32.526Z,732
2017-08-18T05:16:58.714Z,736
2017-08-18T05:17:24.871Z,740
2017-08-18T05:17:51.032Z,748
2017-08-18T05:18:17.228Z,768
2017-08-18T05:18:43.337Z,788
2017-08-18T05:19:09.509Z,816
2017-08-18T05:19:35.690Z,848
2017-08-18T05:20:01.847Z,888
2017-08-18T05:20:28.041Z,924
2017-08-18T05:20:54.264Z,960
2017-08-18T05:21:20.438Z,996
2017-08-18T05:21:46.691Z,1028
2017-08-18T05:22:12.799Z,1052
2017-08-18T05:22:38.964Z,1072
2017-08-18T05:23:05.120Z,1088
2017-08-18T05:23:31.298Z,1108
2017-08-18T05:23:57.469Z,1136
2017-08-18T05:24:23.690Z,1164
2017-08-18T05:24:49.837Z,1200
2017-08-18T05:25:16.048Z,1236
2017-08-18T05:25:42.192Z,1280
2017-08-18T05:26:08.395Z,1324
2017-08-18T05:26:34.650Z,1368
2017-08-18T05:27:00.824Z,1412
2017-08-18T05:27:27.022Z,1456
2017-08-18T05:27:53.150Z,1492
2017-08-18T05:28:19.336Z,1520
2017-08-18T05:28:45.477Z,1548
2017-08-18T05:29:11.655Z,1564
2017-08-18T05:29:37.840Z,1564
2017-08-18T05:30:03.980Z,1556
2017-08-18T05:30:30.196Z,1540
2017-08-18T05:30:56.364Z,1512
2017-08-18T05:31:22.559Z,1480
2017-08-18T05:31:48.734Z,1440
2017-08-18T05:32:14.940Z,1404
2017-08-18T05:32:41.091Z,1372
2017-08-18T05:33:07.341Z,1348
2017-08-18T05:33:33.536Z,1328
2017-08-18T05:33:59.694Z,1316
2017-08-18T05:34:25.944Z,1316
2017-08-18T05:34:52.112Z,1332
2017-08-18T05:35:18.286Z,1364
2017-08-18T05:35:44.444Z,1400
2017-08-18T05:36:10.613Z,1444
2017-08-18T05:36:36.737Z,1488
2017-08-18T05:37:02.875Z,1528
2017-08-18T05:37:28.998Z,1580
2017-08-18T05:37:55.187Z,1632
2017-08-18T05:38:21.351Z,1688
2017-08-18T05:38:47.553Z,1732
2017-08-18T05:39:13.739Z,1760
2017-08-18T05:39:39.909Z,1768
2017-08-18T05:40:06.117Z,1768
2017-08-18T05:40:32.336Z,1756
2017-08-18T05:40:58.505Z,1728
2017-08-18T05:41:24.703Z,1696
2017-08-18T05:41:50.956Z,1660
2017-08-18T05:42:17.140Z,1624
2017-08-18T05:42:43.277Z,1588
2017-08-18T05:43:09.472Z,1564
2017-08-18T05:43:35.620Z,1532
2017-08-18T05:44:01.757Z,1512
2017-08-18T05:44:27.963Z,1496
2017-08-18T05:44:54.155Z,1484
2017-08-18T05:45:20.374Z,1456
2017-08-18T05:45:46.520Z,1424
2017-08-18T05:46:12.729Z,1404
2017-08-18T05:46:38.895Z,1388
2017-08-18T05:47:05.065Z,1372
2017-08-18T05:47:31.211Z,1356
2017-08-18T05:47:57.363Z,1336
2017-08-18T05:48:23.556Z,1324
2017-08-18T05:48:49.694Z,1316
2017-08-18T05:49:15.900Z,1324
2017-08-18T05:49:42.058Z,1348
2017-08-18T05:50:08.256Z,1384
2017-08-18T05:50:34.431Z,1428
2017-08-18T05:51:00.621Z,1472
2017-08-18T05:51:26.805Z,1500
2017-08-18T05:51:52.944Z,1504
2017-08-18T05:52:19.073Z,1500
2017-08-18T05:52:45.246Z,1472
2017-08-18T05:53:11.398Z,1444
2017-08-18T05:53:37.535Z,1416
2017-08-18T05:54:03.713Z,1408
2017-08-18T05:54:29.901Z,1412
2017-08-18T05:54:56.080Z,1428
2017-08-18T05:55:22.274Z,1460
2017-08-18T05:55:48.437Z,1492
2017-08-18T05:56:14.580Z,1516
2017-08-18T05:56:40.771Z,1544
2017-08-18T05:57:06.932Z,1584
2017-08-18T05:57:33.146Z,1632
2017-08-18T05:57:59.285Z,1692
2017-08-18T05:58:25.463Z,1748
2017-08-18T05:58:51.662Z,1804
2017-08-18T05:59:17.789Z,1840
2017-08-18T05:59:43.974Z,1860
2017-08-18T06:00:10.109Z,1860
2017-08-18T06:00:36.302Z,1852
2017-08-18T06:01:02.485Z,1836
2017-08-18T06:01:28.687Z,1816
2017-08-18T06:01:54.809Z,1796
2017-08-18T06:02:21.000Z,1788
2017-08-18T06:02:47.163Z,1784
2017-08-18T06:03:13.284Z,1788
2017-08-18T06:03:39.445Z,1800
2017-08-18T06:04:05.614Z,1816
2017-08-18T06:04:31.799Z,1844
2017-08-18T06:04:57.992Z,1884
2017-08-18T06:05:24.140Z,1920
2017-08-18T06:05:50.328Z,1960
2017-08-18T06:06:16.522Z,2000
2017-08-18T06:06:42.670Z,2040
2017-08-18T06:07:08.884Z,2080
2017-08-18T06:07:35.032Z,2128
2017-08-18T06:08:01.234Z,2176
2017-08-18T06:08:27.459Z,2228
2017-08-18T06:08:53.632Z,2268
2017-08-18T06:09:19.830Z,2300
2017-08-18T06:09:46.042Z,2320
2017-08-18T06:10:12.279Z,2324
2017-08-18T06:10:38.439Z,2328
2017-08-18T06:11:04.582Z,2320
2017-08-18T06:11:30.784Z,2312
2017-08-18T06:11:56.974Z,2292
2017-08-18T06:12:23.187Z,2280
2017-08-18T06:12:49.296Z,2272
2017-08-18T06:13:15.517Z,2268
2017-08-18T06:13:41.731Z,2268
2017-08-18T06:14:07.911Z,2268
2017-08-18T06:14:34.094Z,2268
2017-08-18T06:15:00.313Z,2276